createdAt,value
2019-03-03T00:02:28.576Z,31.60
2019-03-03T00:05:01.859Z,31.83
2019-03-03T00:07:35.854Z,30.40
2019-03-03T00:10:18.407Z,30.23
2019-03-03T00:12:51.964Z,30.40
2019-03-03T00:15:25.242Z,29.77
2019-03-03T00:17:58.382Z,28.33
2019-03-03T00:20:42.241Z,28.80
2019-03-03T00:23:15.406Z,29.33
2019-03-03T00:25:48.502Z,28.80
2019-03-03T00:28:22.220Z,27.90
2019-03-03T00:30:55.697Z,27.10
2019-03-03T00:33:30.595Z,27.00
2019-03-03T00:36:03.705Z,26.67
2019-03-03T00:38:55.809Z,27.63
2019-03-03T00:42:11.807Z,27.77
2019-03-03T00:45:33.532Z,26.17
2019-03-03T00:48:41.387Z,24.67
2019-03-03T00:51:59.076Z,24.90
2019-03-03T00:55:04.911Z,23.77
2019-03-03T00:57:48.983Z,23.07
2019-03-03T01:00:38.063Z,24.13
2019-03-03T01:03:32.119Z,23.77
2019-03-03T01:06:33.883Z,22.63
2019-03-03T01:09:55.465Z,22.20
2019-03-03T01:12:38.705Z,21.17
2019-03-03T01:15:31.160Z,21.30
2019-03-03T01:18:15.375Z,21.50
2019-03-03T01:20:59.706Z,19.20
2019-03-03T01:23:50.537Z,19.33
2019-03-03T01:26:26.230Z,16.40
2019-03-03T01:28:59.390Z,16.13
2019-03-03T01:31:32.902Z,16.10
2019-03-03T01:34:06.326Z,14.73
2019-03-03T01:36:48.651Z,14.77
2019-03-03T01:39:22.412Z,14.67
2019-03-03T01:42:05.460Z,13.43
2019-03-03T01:44:47.689Z,13.83
2019-03-03T01:47:21.144Z,13.60
2019-03-03T01:49:54.292Z,11.63
2019-03-03T01:52:28.366Z,12.13
2019-03-03T01:55:01.816Z,11.53
2019-03-03T01:57:35.321Z,11.43
2019-03-03T02:00:17.439Z,11.23
2019-03-03T02:02:51.002Z,10.63
2019-03-03T02:05:25.276Z,10.97
2019-03-03T02:08:07.543Z,10.73
2019-03-03T02:10:40.927Z,11.30
2019-03-03T02:13:16.809Z,10.53
2019-03-03T02:15:59.102Z,10.87
2019-03-03T02:18:33.046Z,10.90
2019-03-03T02:21:16.170Z,11.10
2019-03-03T02:23:59.064Z,11.03
2019-03-03T02:26:41.322Z,10.83
2019-03-03T02:29:15.148Z,10.47
2019-03-03T02:31:49.900Z,10.63
2019-03-03T02:34:23.532Z,10.27
2019-03-03T02:36:56.960Z,10.07
2019-03-03T02:39:30.145Z,9.67
2019-03-03T02:42:03.565Z,10.43
2019-03-03T02:44:47.078Z,9.30
2019-03-03T02:47:20.235Z,9.97
2019-03-03T02:49:53.809Z,8.93
2019-03-03T02:52:27.256Z,9.53
2019-03-03T02:55:01.010Z,7.80
2019-03-03T02:57:34.527Z,7.30
2019-03-03T03:00:12.438Z,8.87
2019-03-03T03:02:58.942Z,6.93
2019-03-03T03:06:00.453Z,7.00
2019-03-03T03:08:39.738Z,6.93
2019-03-03T03:11:30.925Z,6.77
2019-03-03T03:14:12.901Z,6.27
2019-03-03T03:17:02.460Z,6.70
2019-03-03T03:19:53.011Z,7.20
2019-03-03T03:22:54.317Z,6.63
2019-03-03T03:25:54.592Z,6.40
2019-03-03T03:29:04.472Z,5.73
2019-03-03T03:32:32.083Z,6.03
2019-03-03T03:35:24.702Z,6.23
2019-03-03T03:38:38.323Z,6.43
2019-03-03T03:41:19.601Z,5.93
2019-03-03T03:44:02.508Z,6.43
2019-03-03T03:46:56.670Z,6.23
2019-03-03T03:50:02.731Z,6.63
2019-03-03T03:52:53.894Z,6.43
2019-03-03T03:55:47.387Z,6.13
2019-03-03T03:58:29.338Z,6.60
2019-03-03T04:01:25.694Z,6.03
2019-03-03T04:04:35.717Z,6.87
2019-03-03T04:07:14.658Z,6.40
2019-03-03T04:10:17.719Z,6.77
2019-03-03T04:13:24.700Z,7.10
2019-03-03T04:16:13.150Z,6.73
2019-03-03T04:19:21.379Z,6.17
2019-03-03T04:22:34.456Z,7.20
2019-03-03T04:25:18.355Z,7.20
2019-03-03T04:28:13.234Z,7.70
2019-03-03T04:31:26.691Z,7.60
2019-03-03T04:34:10.023Z,8.10
2019-03-03T04:36:52.973Z,8.03
2019-03-03T04:39:50.258Z,7.67
2019-03-03T04:42:38.923Z,8.53
2019-03-03T04:45:27.234Z,8.37
2019-03-03T04:48:26.136Z,7.83
2019-03-03T04:51:08.678Z,7.90
2019-03-03T04:54:26.306Z,8.70
2019-03-03T04:57:39.565Z,8.53
2019-03-03T05:00:47.381Z,8.40
2019-03-03T05:03:35.818Z,7.93
2019-03-03T05:06:56.288Z,8.10
2019-03-03T05:09:47.093Z,8.37
2019-03-03T05:12:53.801Z,8.97
2019-03-03T05:16:04.190Z,8.07
2019-03-03T05:18:49.490Z,8.17
2019-03-03T05:21:23.311Z,8.27
2019-03-03T05:23:56.800Z,9.47
2019-03-03T05:26:31.470Z,9.73
2019-03-03T05:29:04.642Z,8.90
2019-03-03T05:31:49.066Z,9.90
2019-03-03T05:34:31.658Z,9.67
2019-03-03T05:37:14.642Z,10.67
2019-03-03T05:39:57.328Z,9.43
2019-03-03T05:42:31.371Z,10.17
2019-03-03T05:45:13.850Z,11.00
2019-03-03T05:47:47.116Z,10.23
2019-03-03T05:50:19.934Z,11.10
2019-03-03T05:53:08.166Z,11.13
2019-03-03T05:55:41.819Z,11.70
2019-03-03T05:58:15.606Z,12.13
2019-03-03T06:00:58.322Z,11.53
2019-03-03T06:03:31.550Z,11.73
2019-03-03T06:06:05.041Z,12.43
2019-03-03T06:08:39.009Z,13.00
2019-03-03T06:11:12.470Z,12.40
2019-03-03T06:13:46.558Z,12.90
2019-03-03T06:16:35.574Z,13.53
2019-03-03T06:19:17.575Z,14.27
2019-03-03T06:21:51.088Z,13.97
2019-03-03T06:24:25.050Z,16.27
2019-03-03T06:26:59.503Z,16.33
2019-03-03T06:29:33.631Z,16.00
2019-03-03T06:32:07.097Z,16.53
2019-03-03T06:34:40.489Z,18.77
2019-03-03T06:37:14.827Z,18.63
2019-03-03T06:39:49.060Z,20.23
2019-03-03T06:42:23.970Z,20.70
2019-03-03T06:45:09.881Z,21.80
2019-03-03T06:47:45.502Z,21.20
2019-03-03T06:50:27.664Z,21.73
2019-03-03T06:53:00.866Z,21.90
2019-03-03T06:55:34.654Z,24.30
2019-03-03T06:58:09.095Z,22.97
2019-03-03T07:00:52.243Z,23.37
2019-03-03T07:03:36.086Z,23.80
2019-03-03T07:06:09.503Z,23.97
2019-03-03T07:08:43.033Z,23.20
2019-03-03T07:11:17.075Z,22.63
2019-03-03T07:13:51.030Z,23.30
2019-03-03T07:16:34.254Z,22.50
2019-03-03T07:19:07.852Z,23.10
2019-03-03T07:21:41.769Z,22.73
2019-03-03T07:24:15.782Z,20.73
2019-03-03T07:26:49.396Z,21.53
2019-03-03T07:29:23.828Z,21.57
2019-03-03T07:31:57.975Z,21.20
2019-03-03T07:34:32.148Z,20.80
2019-03-03T07:37:15.039Z,21.33
2019-03-03T07:40:06.724Z,21.73
2019-03-03T07:42:49.620Z,20.30
2019-03-03T07:45:32.703Z,20.87
2019-03-03T07:48:15.046Z,19.87
2019-03-03T07:50:48.465Z,20.27
2019-03-03T07:53:21.676Z,19.70
2019-03-03T07:55:54.928Z,21.00
2019-03-03T07:58:37.512Z,19.00
2019-03-03T08:01:20.500Z,19.20
2019-03-03T08:03:53.745Z,20.07
2019-03-03T08:06:37.125Z,18.50
2019-03-03T08:09:11.493Z,17.20
2019-03-03T08:11:45.233Z,19.33
2019-03-03T08:14:19.313Z,19.40
2019-03-03T08:17:01.770Z,18.83
2019-03-03T08:19:36.524Z,17.43
2019-03-03T08:22:21.468Z,17.80
2019-03-03T08:24:55.090Z,17.53
2019-03-03T08:27:28.666Z,16.50
2019-03-03T08:30:02.715Z,18.07
2019-03-03T08:32:44.979Z,18.53
2019-03-03T08:35:18.506Z,18.70
2019-03-03T08:37:52.423Z,19.43
2019-03-03T08:40:25.644Z,18.83
2019-03-03T08:43:04.535Z,18.80
2019-03-03T08:45:59.573Z,18.70
2019-03-03T08:49:21.724Z,18.03
2019-03-03T08:52:30.324Z,18.17
2019-03-03T08:55:25.702Z,17.37
2019-03-03T08:58:34.730Z,16.23
2019-03-03T09:01:17.497Z,15.93
2019-03-03T09:04:26.337Z,15.80
2019-03-03T09:07:19.172Z,17.43
2019-03-03T09:10:00.871Z,16.17
2019-03-03T09:13:25.570Z,16.13
2019-03-03T09:16:37.980Z,16.23
2019-03-03T09:19:43.153Z,14.93
2019-03-03T09:22:55.169Z,14.73
2019-03-03T09:25:46.501Z,15.87
2019-03-03T09:28:35.604Z,14.13
2019-03-03T09:31:34.126Z,13.70
2019-03-03T09:34:49.312Z,13.43
2019-03-03T09:37:30.348Z,12.43
2019-03-03T09:40:25.590Z,12.10
2019-03-03T09:43:16.784Z,11.83
2019-03-03T09:46:32.674Z,11.13
2019-03-03T09:49:27.718Z,11.83
2019-03-03T09:52:19.838Z,11.93
2019-03-03T09:55:37.624Z,11.13
2019-03-03T09:58:53.024Z,12.18
2019-03-03T10:02:02.884Z,10.37
2019-03-03T10:05:27.405Z,10.00
2019-03-03T10:08:23.064Z,10.23
2019-03-03T10:11:14.870Z,9.80
2019-03-03T10:14:07.193Z,10.60
2019-03-03T10:16:58.617Z,10.90
2019-03-03T10:19:44.878Z,9.90
2019-03-03T10:22:36.401Z,9.87
2019-03-03T10:25:27.031Z,9.37
2019-03-03T10:28:48.134Z,10.10
2019-03-03T10:31:38.535Z,10.07
2019-03-03T10:34:50.784Z,11.07
2019-03-03T10:37:39.036Z,10.57
2019-03-03T10:40:47.639Z,11.47
2019-03-03T10:43:40.156Z,11.00
2019-03-03T10:46:36.590Z,11.73
2019-03-03T10:49:17.954Z,11.27
2019-03-03T10:52:04.448Z,11.63
2019-03-03T10:54:55.791Z,12.50
2019-03-03T10:57:48.353Z,11.83
2019-03-03T11:00:41.207Z,12.57
2019-03-03T11:03:34.133Z,12.47
2019-03-03T11:06:27.299Z,12.57
2019-03-03T11:09:37.432Z,12.63
2019-03-03T11:12:37.702Z,13.83
2019-03-03T11:15:47.177Z,12.80
2019-03-03T11:18:42.444Z,13.50
2019-03-03T11:22:09.560Z,13.43
2019-03-03T11:25:22.655Z,13.60
2019-03-03T11:28:36.579Z,13.50
2019-03-03T11:31:34.978Z,12.87
2019-03-03T11:34:29.727Z,13.03
2019-03-03T11:37:15.356Z,12.47
2019-03-03T11:40:07.912Z,12.43
2019-03-03T11:43:00.340Z,12.23
2019-03-03T11:46:20.819Z,12.97
2019-03-03T11:49:32.305Z,11.73
2019-03-03T11:52:53.094Z,11.83
2019-03-03T11:56:14.315Z,11.97
2019-03-03T11:59:12.737Z,13.50
2019-03-03T12:02:39.941Z,13.17
2019-03-03T12:05:41.432Z,11.77
2019-03-03T12:08:33.562Z,13.30
2019-03-03T12:11:17.791Z,12.00
2019-03-03T12:14:28.469Z,12.77
2019-03-03T12:17:43.518Z,12.17
2019-03-03T12:20:33.000Z,12.80
2019-03-03T12:23:41.423Z,12.80
2019-03-03T12:26:23.936Z,13.10
2019-03-03T12:29:20.585Z,12.73
2019-03-03T12:32:23.574Z,12.73
2019-03-03T12:37:59.371Z,12.50
2019-03-03T12:41:10.114Z,12.03
2019-03-03T12:44:19.638Z,11.53
2019-03-03T12:47:18.742Z,12.27
2019-03-03T12:50:17.487Z,12.33
2019-03-03T12:53:10.962Z,11.90
2019-03-03T12:56:12.457Z,11.57
2019-03-03T12:59:07.775Z,12.70
2019-03-03T13:02:06.442Z,11.77
2019-03-03T13:05:14.788Z,12.10
2019-03-03T13:08:45.320Z,11.70
2019-03-03T13:11:25.839Z,11.33
2019-03-03T13:14:24.373Z,10.73
2019-03-03T13:17:34.863Z,11.63
2019-03-03T13:20:29.656Z,11.33
2019-03-03T13:23:40.586Z,10.17
2019-03-03T13:26:45.398Z,10.57
2019-03-03T13:29:43.986Z,10.37
2019-03-03T13:32:41.556Z,9.73
2019-03-03T13:35:32.524Z,10.70
2019-03-03T13:38:31.077Z,9.17
2019-03-03T13:41:35.130Z,9.70
2019-03-03T13:44:09.100Z,10.00
2019-03-03T13:46:43.308Z,10.53
2019-03-03T13:49:25.936Z,9.93
2019-03-03T13:52:03.310Z,10.37
2019-03-03T13:54:37.148Z,10.43
2019-03-03T13:57:10.695Z,10.33
2019-03-03T13:59:44.415Z,11.00
2019-03-03T14:02:21.979Z,13.00
2019-03-03T14:05:04.779Z,10.57
2019-03-03T14:07:37.908Z,10.50
2019-03-03T14:10:12.593Z,10.90
2019-03-03T14:12:45.695Z,10.70
2019-03-03T14:15:20.493Z,10.33
2019-03-03T14:17:53.587Z,11.50
2019-03-03T14:20:27.152Z,11.07
2019-03-03T14:23:01.033Z,11.10
2019-03-03T14:25:34.546Z,11.80
2019-03-03T14:28:08.145Z,11.23
2019-03-03T14:30:54.293Z,10.53
2019-03-03T14:33:28.345Z,11.07
2019-03-03T14:36:01.569Z,10.63
2019-03-03T14:38:35.962Z,10.93
2019-03-03T14:41:09.712Z,11.50
2019-03-03T14:43:42.475Z,10.57
2019-03-03T14:46:17.216Z,11.97
2019-03-03T14:48:51.560Z,11.80
2019-03-03T14:51:34.198Z,11.13
2019-03-03T14:54:10.638Z,12.10
2019-03-03T14:56:49.114Z,10.43
2019-03-03T14:59:22.286Z,11.10
2019-03-03T15:01:56.183Z,10.47
2019-03-03T15:04:30.003Z,11.57
2019-03-03T15:07:14.877Z,12.03
2019-03-03T15:09:58.041Z,12.07
2019-03-03T15:12:46.335Z,12.00
2019-03-03T15:15:21.485Z,11.33
2019-03-03T15:18:00.970Z,11.30
2019-03-03T15:20:34.398Z,10.83
2019-03-03T15:23:08.139Z,11.57
2019-03-03T15:25:41.674Z,11.23
2019-03-03T15:28:15.198Z,10.40
2019-03-03T15:30:48.442Z,10.60
2019-03-03T15:33:32.976Z,10.90
2019-03-03T15:36:18.942Z,11.67
2019-03-03T15:39:08.002Z,11.60
2019-03-03T15:41:59.691Z,11.43
2019-03-03T15:44:32.848Z,12.17
2019-03-03T15:47:07.372Z,12.07
2019-03-03T15:49:50.282Z,11.57
2019-03-03T15:52:23.474Z,12.30
2019-03-03T15:55:06.266Z,13.20
2019-03-03T15:57:49.279Z,11.53
2019-03-03T16:00:32.923Z,13.10
2019-03-03T16:03:06.861Z,12.70
2019-03-03T16:05:40.747Z,12.80
2019-03-03T16:08:14.206Z,12.17
2019-03-03T16:10:49.001Z,13.20
2019-03-03T16:13:22.562Z,13.43
2019-03-03T16:15:56.080Z,13.33
2019-03-03T16:18:29.595Z,13.67
2019-03-03T16:21:03.192Z,14.03
2019-03-03T16:23:36.351Z,14.23
2019-03-03T16:26:18.320Z,13.47
2019-03-03T16:28:52.484Z,14.00
2019-03-03T16:31:35.638Z,14.03
2019-03-03T16:34:09.871Z,14.60
2019-03-03T16:36:43.335Z,14.07
2019-03-03T16:39:17.001Z,14.30
2019-03-03T16:41:50.132Z,14.83
2019-03-03T16:44:24.254Z,14.90
2019-03-03T16:46:57.959Z,15.33
2019-03-03T16:49:31.562Z,16.67
2019-03-03T16:52:04.975Z,18.73
2019-03-03T16:54:38.494Z,16.13
2019-03-03T16:57:12.338Z,18.10
2019-03-03T16:59:46.037Z,19.90
2019-03-03T17:02:19.874Z,17.83
2019-03-03T17:04:53.523Z,17.90
2019-03-03T17:07:27.017Z,18.20
2019-03-03T17:10:00.551Z,18.57
2019-03-03T17:12:34.547Z,17.87
2019-03-03T17:15:21.477Z,18.70
2019-03-03T17:17:54.726Z,18.87
2019-03-03T17:20:28.138Z,18.50
2019-03-03T17:23:02.249Z,20.37
2019-03-03T17:25:35.523Z,19.03
2019-03-03T17:28:09.455Z,18.83
2019-03-03T17:30:42.488Z,18.37
2019-03-03T17:33:15.619Z,19.17
2019-03-03T17:35:58.579Z,18.40
2019-03-03T17:38:41.088Z,18.40
2019-03-03T17:41:14.941Z,19.10
2019-03-03T17:43:50.103Z,19.10
2019-03-03T17:46:36.122Z,19.33
2019-03-03T17:49:18.768Z,18.23
2019-03-03T17:51:51.878Z,20.80
2019-03-03T17:54:25.117Z,20.03
2019-03-03T17:56:59.015Z,19.73
2019-03-03T17:59:33.176Z,18.00
2019-03-03T18:02:07.165Z,19.43
2019-03-03T18:04:52.016Z,18.67
2019-03-03T18:07:25.174Z,18.07
2019-03-03T18:10:13.232Z,18.03
2019-03-03T18:12:47.727Z,19.47
2019-03-03T18:15:20.458Z,19.50
2019-03-03T18:17:54.962Z,20.70
2019-03-03T18:20:28.643Z,19.00
2019-03-03T18:23:02.205Z,18.50
2019-03-03T18:25:35.429Z,19.00
2019-03-03T18:28:17.887Z,20.17
2019-03-03T18:30:51.332Z,19.83
2019-03-03T18:33:24.797Z,19.63
2019-03-03T18:35:58.685Z,20.47
2019-03-03T18:38:32.238Z,20.20
2019-03-03T18:41:05.323Z,21.50
2019-03-03T18:43:38.529Z,22.47
2019-03-03T18:46:12.180Z,22.37
2019-03-03T18:48:45.474Z,22.70
2019-03-03T18:51:29.072Z,22.90
2019-03-03T18:54:14.942Z,24.50
2019-03-03T18:56:48.727Z,24.43
2019-03-03T18:59:22.675Z,25.07
2019-03-03T19:01:55.858Z,25.20
2019-03-03T19:04:29.753Z,25.50
2019-03-03T19:07:03.376Z,25.43
2019-03-03T19:09:37.572Z,25.20
2019-03-03T19:12:29.729Z,26.20
2019-03-03T19:15:03.441Z,26.20
2019-03-03T19:17:37.550Z,25.43
2019-03-03T19:20:11.467Z,25.00
2019-03-03T19:22:54.352Z,25.43
2019-03-03T19:25:28.020Z,24.37
2019-03-03T19:28:01.167Z,23.20
2019-03-03T19:30:56.220Z,22.67
2019-03-03T19:34:05.171Z,21.97
2019-03-03T19:36:45.887Z,22.23
2019-03-03T19:39:36.627Z,21.37
2019-03-03T19:42:10.770Z,22.10
2019-03-03T19:44:44.551Z,21.77
2019-03-03T19:47:26.764Z,22.10
2019-03-03T19:50:00.008Z,21.93
2019-03-03T19:52:33.695Z,20.40
2019-03-03T19:55:08.232Z,23.80
2019-03-03T19:57:56.560Z,20.90
2019-03-03T20:00:36.836Z,19.40
2019-03-03T20:03:22.144Z,20.03
2019-03-03T20:05:57.595Z,19.70
2019-03-03T20:08:31.570Z,19.77
2019-03-03T20:11:14.458Z,18.40
2019-03-03T20:13:56.662Z,19.40
2019-03-03T20:16:29.806Z,18.13
2019-03-03T20:19:05.378Z,17.77
2019-03-03T20:21:38.757Z,18.77
2019-03-03T20:24:12.708Z,17.93
2019-03-03T20:26:46.558Z,17.03
2019-03-03T20:29:20.198Z,17.07
2019-03-03T20:31:53.410Z,16.37
2019-03-03T20:34:27.375Z,15.23
2019-03-03T20:37:00.505Z,14.90
2019-03-03T20:39:34.448Z,15.20
2019-03-03T20:42:07.708Z,14.23
2019-03-03T20:44:51.764Z,14.60
2019-03-03T20:47:26.424Z,14.27
2019-03-03T20:50:01.076Z,14.27
2019-03-03T20:52:37.560Z,13.97
2019-03-03T20:55:12.862Z,13.90
2019-03-03T20:57:47.249Z,13.33
2019-03-03T21:00:31.050Z,12.77
2019-03-03T21:03:06.858Z,12.20
2019-03-03T21:05:40.227Z,12.00
2019-03-03T21:08:13.989Z,11.80
2019-03-03T21:10:48.936Z,12.27
2019-03-03T21:13:22.090Z,11.97
2019-03-03T21:15:57.420Z,12.33
2019-03-03T21:18:30.847Z,11.97
2019-03-03T21:21:04.112Z,11.60
2019-03-03T21:23:46.387Z,11.00
2019-03-03T21:26:21.618Z,10.87
2019-03-03T21:28:55.177Z,10.03
2019-03-03T21:31:29.694Z,10.97
2019-03-03T21:34:02.972Z,11.03
2019-03-03T21:36:45.083Z,10.10
2019-03-03T21:39:18.693Z,8.73
2019-03-03T21:41:52.605Z,9.73
2019-03-03T21:44:36.577Z,9.63
2019-03-03T21:47:11.279Z,8.33
2019-03-03T21:49:54.994Z,9.20
2019-03-03T21:52:37.538Z,9.00
2019-03-03T21:55:11.435Z,8.10
2019-03-03T21:57:45.970Z,8.37
2019-03-03T22:00:25.581Z,8.13
2019-03-03T22:03:07.981Z,7.90
2019-03-03T22:05:50.757Z,6.90
2019-03-03T22:08:24.667Z,7.20
2019-03-03T22:11:12.397Z,7.43
2019-03-03T22:13:55.215Z,6.93
2019-03-03T22:16:37.651Z,7.20
2019-03-03T22:19:11.188Z,7.13
2019-03-03T22:21:46.208Z,6.97
2019-03-03T22:24:22.273Z,7.47
2019-03-03T22:27:04.248Z,7.33
2019-03-03T22:29:37.763Z,7.70
2019-03-03T22:32:11.373Z,6.97
2019-03-03T22:34:45.200Z,7.83
2019-03-03T22:37:18.662Z,7.83
2019-03-03T22:39:52.108Z,7.10
2019-03-03T22:42:26.669Z,7.30
2019-03-03T22:45:10.568Z,7.47
2019-03-03T22:47:44.051Z,7.67
2019-03-03T22:50:18.242Z,8.60
2019-03-03T22:53:00.731Z,8.50
2019-03-03T22:55:40.416Z,8.20
2019-03-03T22:58:13.410Z,7.60
2019-03-03T23:01:28.082Z,8.03
2019-03-03T23:05:15.750Z,7.97
2019-03-03T23:08:05.334Z,8.47
2019-03-03T23:11:31.866Z,9.33
2019-03-03T23:14:36.684Z,10.10
2019-03-03T23:17:42.210Z,9.97
2019-03-03T23:20:32.820Z,9.13
2019-03-03T23:23:49.925Z,10.07
2019-03-03T23:26:23.291Z,9.57
2019-03-03T23:28:57.227Z,9.10
2019-03-03T23:31:30.695Z,9.80
2019-03-03T23:34:03.919Z,9.20
2019-03-03T23:36:37.039Z,9.50
2019-03-03T23:39:26.224Z,9.27
2019-03-03T23:42:08.406Z,9.87
2019-03-03T23:44:43.082Z,10.20
2019-03-03T23:47:16.202Z,9.00
2019-03-03T23:49:58.502Z,9.77
2019-03-03T23:52:32.721Z,8.93
2019-03-03T23:55:15.312Z,10.13
2019-03-03T23:57:57.450Z,9.70
